Time;durP1;ratioP1;P1;durP2;ratioP2;P2;SDS_P1;SDS_P2;PMS_P1;PMS_P2;Temp;Humidity;BMP_temperature;BMP_pressure;BME280_temperature;BME280_humidity;BME280_pressure;Samples;Min_cycle;Max_cycle;Signal;HPM_P1;HPM_P2
2023/01/29 00:00:39;;;;;;;14.55;7.38;;;6.90;99.90;;;;;;5051580;28;20017;-70
2023/01/29 00:03:05;;;;;;;16.98;8.05;;;7.00;99.90;;;;;;5051173;28;20033;-70
2023/01/29 00:05:30;;;;;;;23.80;8.00;;;6.90;99.90;;;;;;5051369;28;20100;-71
2023/01/29 00:07:56;;;;;;;13.60;7.00;;;6.90;99.90;;;;;;5051493;28;20053;-70
2023/01/29 00:10:23;;;;;;;14.52;7.55;;;6.90;99.90;;;;;;5051579;28;20557;-71
2023/01/29 00:12:50;;;;;;;13.85;7.57;;;7.00;99.90;;;;;;5051483;28;20092;-70
2023/01/29 00:15:16;;;;;;;17.15;8.20;;;6.90;99.90;;;;;;5050912;28;20079;-70
2023/01/29 00:17:42;;;;;;;15.70;8.32;;;7.00;99.90;;;;;;5050959;28;20041;-70
2023/01/29 00:20:08;;;;;;;15.23;8.35;;;7.00;99.90;;;;;;5051121;28;20032;-70
2023/01/29 00:22:35;;;;;;;13.52;7.75;;;7.00;99.90;;;;;;5050975;28;20025;-70
2023/01/29 00:25:01;;;;;;;16.35;7.20;;;7.00;99.90;;;;;;5049558;28;20028;-71
2023/01/29 00:27:26;;;;;;;15.20;7.90;;;6.90;99.90;;;;;;5050684;28;20018;-70
2023/01/29 00:32:36;;;;;;;14.85;7.60;;;6.80;99.90;;;;;;5051203;28;20067;-70
2023/01/29 00:35:02;;;;;;;13.15;7.32;;;6.90;99.90;;;;;;5049727;28;20033;-70
2023/01/29 00:37:28;;;;;;;14.48;8.05;;;6.90;99.90;;;;;;5049538;28;20047;-70
2023/01/29 00:39:54;;;;;;;16.40;8.05;;;6.90;99.90;;;;;;5050829;28;20033;-69
2023/01/29 00:45:04;;;;;;;14.65;7.55;;;6.90;99.90;;;;;;5050688;28;20499;-69
2023/01/29 00:47:32;;;;;;;12.88;7.47;;;6.90;99.90;;;;;;5050854;28;20036;-70
2023/01/29 00:49:58;;;;;;;13.32;7.78;;;6.90;99.90;;;;;;5050821;28;20021;-70
2023/01/29 00:52:24;;;;;;;12.65;7.50;;;6.90;99.90;;;;;;5050732;28;20097;-70
2023/01/29 00:54:51;;;;;;;16.70;8.52;;;6.80;99.90;;;;;;5050595;28;20519;-70
2023/01/29 00:57:17;;;;;;;16.38;8.25;;;6.80;99.90;;;;;;5050446;28;20481;-69
2023/01/29 00:59:42;;;;;;;13.32;7.78;;;6.80;99.90;;;;;;5050708;28;20028;-69
2023/01/29 01:04:52;;;;;;;17.67;8.75;;;6.80;99.90;;;;;;5051070;28;20449;-70
2023/01/29 01:07:18;;;;;;;15.40;7.43;;;6.80;99.90;;;;;;5050606;28;20052;-69
2023/01/29 01:12:28;;;;;;;15.88;7.68;;;6.80;99.90;;;;;;5050771;28;20040;-71
2023/01/29 01:14:54;;;;;;;15.85;7.90;;;6.80;99.90;;;;;;5050482;28;20048;-70
2023/01/29 01:17:20;;;;;;;14.95;8.02;;;6.80;99.90;;;;;;5050458;28;20037;-70
2023/01/29 01:19:45;;;;;;;13.25;7.22;;;6.80;99.90;;;;;;5050477;28;20021;-69
2023/01/29 01:22:11;;;;;;;16.67;8.45;;;6.80;99.90;;;;;;5050797;28;20055;-71
2023/01/29 01:24:37;;;;;;;13.25;8.07;;;6.80;99.90;;;;;;5049272;28;20025;-70
2023/01/29 01:27:03;;;;;;;15.07;8.15;;;6.80;99.90;;;;;;5050706;28;20029;-71
2023/01/29 01:29:29;;;;;;;16.98;8.23;;;6.80;99.90;;;;;;5050608;28;20048;-70
2023/01/29 01:31:54;;;;;;;15.00;8.32;;;6.80;99.90;;;;;;5050315;28;20492;-70
2023/01/29 01:34:21;;;;;;;17.30;8.60;;;6.80;99.90;;;;;;5050395;28;20381;-70
2023/01/29 01:36:47;;;;;;;16.27;8.13;;;6.70;99.90;;;;;;5050212;28;20041;-70
2023/01/29 01:39:12;;;;;;;15.38;8.10;;;6.80;99.90;;;;;;5050271;28;20036;-70
2023/01/29 01:41:38;;;;;;;15.05;8.32;;;6.70;99.90;;;;;;5053704;28;20547;-71
2023/01/29 01:44:05;;;;;;;16.02;8.25;;;6.70;99.90;;;;;;5053796;28;20053;-70
2023/01/29 01:46:36;;;;;;;15.02;8.50;;;6.70;99.90;;;;;;5053622;28;20029;-70
2023/01/29 01:49:17;;;;;;;16.38;7.97;;;6.70;99.90;;;;;;5053760;28;20025;-70
2023/01/29 01:51:46;;;;;;;19.20;8.20;;;6.70;99.90;;;;;;5053724;28;20060;-70
2023/01/29 01:54:20;;;;;;;15.45;8.48;;;6.80;99.90;;;;;;5053565;28;20028;-69
2023/01/29 01:56:54;;;;;;;15.23;7.97;;;6.70;99.90;;;;;;5053736;28;20035;-68
2023/01/29 01:59:21;;;;;;;18.92;8.85;;;6.80;99.90;;;;;;5053594;28;20021;-70
2023/01/29 02:01:50;;;;;;;16.90;9.05;;;6.80;99.90;;;;;;5053429;28;20029;-68
2023/01/29 02:10:12;;;;;;;22.02;9.38;;;6.80;99.90;;;;;;5054013;28;20509;-70
2023/01/29 02:12:39;;;;;;;18.95;9.57;;;6.80;99.90;;;;;;5053572;28;20095;-70
2023/01/29 02:15:06;;;;;;;19.08;9.30;;;6.80;99.90;;;;;;5053143;28;20052;-69
2023/01/29 02:17:32;;;;;;;19.88;9.70;;;6.90;99.90;;;;;;5053527;28;20036;-69
2023/01/29 02:20:16;;;;;;;20.13;9.05;;;6.80;99.90;;;;;;5054343;28;20024;-69
2023/01/29 02:23:12;;;;;;;20.50;9.30;;;6.80;99.90;;;;;;5056933;28;20028;-70
2023/01/29 02:26:00;;;;;;;19.17;9.75;;;6.80;99.90;;;;;;5052637;28;20082;-69
2023/01/29 02:28:40;;;;;;;17.75;8.80;;;6.80;99.90;;;;;;5053160;28;20031;-70
2023/01/29 02:31:30;;;;;;;20.30;9.57;;;6.80;99.90;;;;;;5052815;28;20381;-68
2023/01/29 02:34:25;;;;;;;22.45;9.00;;;6.80;99.90;;;;;;5052933;28;20424;-71
2023/01/29 02:37:08;;;;;;;17.67;9.38;;;6.80;99.90;;;;;;5052935;28;20036;-69
2023/01/29 02:39:50;;;;;;;21.73;9.10;;;6.80;99.90;;;;;;5052876;28;20044;-70
2023/01/29 02:42:24;;;;;;;18.27;8.77;;;6.70;99.90;;;;;;5053079;28;20025;-69
2023/01/29 02:44:58;;;;;;;19.35;9.25;;;6.80;99.90;;;;;;5052723;28;20029;-68
2023/01/29 02:47:58;;;;;;;19.50;9.30;;;6.80;99.90;;;;;;5052680;28;20613;-70
2023/01/29 02:50:43;;;;;;;21.27;10.20;;;6.70;99.90;;;;;;5019043;28;20537;-70
2023/01/29 02:53:26;;;;;;;18.77;9.23;;;6.80;99.90;;;;;;5052394;28;20477;-69
2023/01/29 02:56:21;;;;;;;19.73;9.90;;;6.80;99.90;;;;;;5052447;28;20422;-70
2023/01/29 02:59:09;;;;;;;20.05;9.95;;;6.80;99.90;;;;;;5050720;28;20116;-69
2023/01/29 03:01:46;;;;;;;19.67;9.77;;;6.80;99.90;;;;;;5051663;28;20037;-69
2023/01/29 03:04:18;;;;;;;20.90;9.27;;;6.80;99.90;;;;;;5052489;28;20052;-68
2023/01/29 03:07:01;;;;;;;19.92;9.55;;;6.80;99.90;;;;;;5052155;28;20068;-70
2023/01/29 03:09:41;;;;;;;20.40;9.57;;;6.80;99.90;;;;;;5052224;28;20025;-69
2023/01/29 03:12:27;;;;;;;19.70;10.02;;;6.80;99.90;;;;;;5052364;28;20471;-70
2023/01/29 03:15:11;;;;;;;21.98;10.52;;;6.70;99.90;;;;;;5052036;28;20045;-70
2023/01/29 03:18:05;;;;;;;19.40;9.52;;;6.80;99.90;;;;;;5052000;28;20469;-69
2023/01/29 03:20:36;;;;;;;18.63;9.38;;;6.80;99.90;;;;;;5051962;28;20025;-69
2023/01/29 03:23:13;;;;;;;19.95;9.38;;;6.80;99.90;;;;;;5050923;28;20477;-70
2023/01/29 03:34:15;;;;;;;20.55;9.40;;;6.80;99.90;;;;;;5052011;28;20150;-68
2023/01/29 03:36:49;;;;;;;22.02;10.50;;;6.80;99.90;;;;;;5051583;28;20136;-70
2023/01/29 03:39:16;;;;;;;20.42;9.85;;;6.80;99.90;;;;;;5051471;28;20104;-69
2023/01/29 03:41:49;;;;;;;23.13;10.48;;;6.80;99.90;;;;;;5051702;28;20515;-69
2023/01/29 03:44:46;;;;;;;20.00;9.55;;;6.80;99.90;;;;;;5051688;28;20074;-69
2023/01/29 03:47:19;;;;;;;21.48;9.60;;;6.80;99.90;;;;;;5050363;28;20063;-70
2023/01/29 03:50:01;;;;;;;17.67;9.18;;;6.80;99.90;;;;;;5051544;28;20025;-70
2023/01/29 03:52:27;;;;;;;22.13;10.32;;;6.80;99.90;;;;;;5051459;28;20025;-69
2023/01/29 03:55:06;;;;;;;21.25;10.18;;;6.80;99.90;;;;;;5051422;28;20109;-69
2023/01/29 03:57:37;;;;;;;20.23;9.98;;;6.90;99.90;;;;;;5050127;28;20370;-69
2023/01/29 04:00:39;;;;;;;19.17;9.75;;;6.80;99.90;;;;;;5051399;28;20448;-69
2023/01/29 04:03:07;;;;;;;17.45;9.15;;;6.80;99.90;;;;;;5037337;28;20187;-68
2023/01/29 04:05:43;;;;;;;19.63;9.45;;;6.80;99.90;;;;;;5051657;28;20022;-69
2023/01/29 04:08:35;;;;;;;20.83;9.45;;;6.80;99.90;;;;;;5051242;28;20595;-70
2023/01/29 04:11:07;;;;;;;21.27;8.83;;;6.70;99.90;;;;;;5051451;28;20028;-70
2023/01/29 04:13:32;;;;;;;;;;;6.70;99.90;;;;;;5051758;28;20115;-68
2023/01/29 04:16:00;;;;;;;17.30;8.82;;;6.70;99.90;;;;;;5051010;28;19995;-69
2023/01/29 04:18:26;;;;;;;15.35;8.18;;;6.70;99.90;;;;;;5051281;28;20454;-70
2023/01/29 04:20:52;;;;;;;17.27;8.35;;;6.70;99.90;;;;;;5051219;28;20044;-70
2023/01/29 04:23:24;;;;;;;19.85;9.25;;;6.70;99.90;;;;;;5051208;28;20025;-68
2023/01/29 04:26:08;;;;;;;;;;;6.70;99.90;;;;;;5051432;28;20562;-68
2023/01/29 04:29:02;;;;;;;18.05;8.15;;;6.70;99.90;;;;;;5051051;28;19904;-68
2023/01/29 04:31:36;;;;;;;19.67;7.60;;;6.70;99.90;;;;;;5024636;28;20077;-69
2023/01/29 04:34:26;;;;;;;15.75;7.45;;;6.70;99.90;;;;;;5049703;28;20028;-69
2023/01/29 04:37:06;;;;;;;13.23;7.07;;;6.80;99.90;;;;;;5050990;28;20549;-69
2023/01/29 04:39:48;;;;;;;14.50;7.40;;;6.80;99.90;;;;;;5050905;28;20059;-69
2023/01/29 04:42:26;;;;;;;18.63;8.30;;;6.80;99.90;;;;;;5051014;28;20048;-70
2023/01/29 04:45:12;;;;;;;16.88;7.38;;;6.80;99.90;;;;;;5050718;28;20481;-69
2023/01/29 04:47:53;;;;;;;23.38;9.38;;;6.90;99.90;;;;;;5051008;28;20052;-69
2023/01/29 04:50:31;;;;;;;14.70;7.68;;;6.90;99.90;;;;;;5050761;28;20027;-70
2023/01/29 04:53:15;;;;;;;17.00;8.80;;;6.90;99.90;;;;;;5050746;28;20032;-70
2023/01/29 04:56:31;;;;;;;22.25;8.77;;;6.90;99.90;;;;;;5050801;28;20025;-70
2023/01/29 04:59:15;;;;;;;23.27;10.80;;;6.90;99.90;;;;;;4988848;28;20126;-69
2023/01/29 05:01:42;;;;;;;24.45;9.50;;;6.90;99.90;;;;;;5045523;28;20037;-69
2023/01/29 05:04:12;;;;;;;22.45;9.85;;;6.90;99.90;;;;;;5050697;28;20025;-70
2023/01/29 05:06:39;;;;;;;24.90;11.02;;;6.90;99.90;;;;;;5049231;28;20032;-70
2023/01/29 05:09:05;;;;;;;23.27;10.88;;;6.80;99.90;;;;;;5050665;28;20025;-70
2023/01/29 05:11:34;;;;;;;24.65;10.73;;;6.80;99.90;;;;;;5049378;28;20535;-70
2023/01/29 05:14:03;;;;;;;25.73;10.90;;;6.90;99.90;;;;;;5050546;28;20108;-70
2023/01/29 05:16:40;;;;;;;23.85;11.30;;;6.80;99.90;;;;;;5053679;28;20052;-70
2023/01/29 05:19:09;;;;;;;23.90;11.23;;;6.80;99.90;;;;;;5054533;28;20025;-70
2023/01/29 05:21:35;;;;;;;26.55;11.63;;;6.80;99.90;;;;;;5054300;28;20500;-70
2023/01/29 05:24:11;;;;;;;27.98;11.60;;;6.80;99.90;;;;;;5054241;28;20031;-70
2023/01/29 05:29:21;;;;;;;25.20;10.90;;;6.80;99.90;;;;;;5054379;28;20516;-70
2023/01/29 05:31:47;;;;;;;24.48;11.35;;;6.80;99.90;;;;;;5054098;28;20025;-68
2023/01/29 05:34:13;;;;;;;25.45;11.30;;;6.80;99.90;;;;;;5054216;28;20029;-70
2023/01/29 05:36:38;;;;;;;24.90;10.77;;;6.80;99.90;;;;;;5054228;28;20091;-70
2023/01/29 05:39:04;;;;;;;30.20;11.32;;;6.90;99.90;;;;;;5054215;28;20061;-70
2023/01/29 05:41:30;;;;;;;23.30;10.18;;;6.90;99.90;;;;;;5053067;28;20032;-70
2023/01/29 05:43:55;;;;;;;22.30;9.20;;;6.90;99.90;;;;;;5054329;28;20032;-70
2023/01/29 05:46:21;;;;;;;21.90;10.77;;;6.90;99.90;;;;;;5055262;28;20060;-70
2023/01/29 05:48:46;;;;;;;25.08;9.48;;;6.90;99.90;;;;;;5056909;28;20072;-70
2023/01/29 05:51:12;;;;;;;19.73;9.57;;;6.90;99.90;;;;;;5057742;28;20036;-70
2023/01/29 05:53:38;;;;;;;27.95;11.48;;;6.90;99.90;;;;;;5056406;28;20400;-70
2023/01/29 05:56:04;;;;;;;26.30;11.23;;;6.90;99.90;;;;;;5054629;28;20055;-69
2023/01/29 05:58:33;;;;;;;25.92;11.70;;;6.90;99.90;;;;;;5053643;28;20112;-69
2023/01/29 06:01:16;;;;;;;23.83;11.18;;;6.90;99.90;;;;;;5053522;28;20021;-70
2023/01/29 06:03:42;;;;;;;22.00;10.15;;;6.90;99.90;;;;;;5053628;28;20055;-69
2023/01/29 06:06:09;;;;;;;25.98;11.65;;;6.90;99.90;;;;;;5052326;28;20021;-71
2023/01/29 06:08:34;;;;;;;26.48;11.23;;;6.80;99.90;;;;;;5053315;28;20112;-70
2023/01/29 06:11:00;;;;;;;26.55;10.20;;;6.80;99.90;;;;;;5053685;28;20569;-70
2023/01/29 06:13:26;;;;;;;24.63;10.23;;;6.80;99.90;;;;;;5053465;28;20067;-69
2023/01/29 06:15:51;;;;;;;28.15;12.00;;;6.80;99.90;;;;;;5053150;28;20041;-69
2023/01/29 06:18:17;;;;;;;24.23;11.20;;;6.80;99.90;;;;;;5053350;28;20481;-71
2023/01/29 06:20:43;;;;;;;24.77;10.80;;;6.80;99.90;;;;;;5053208;28;20025;-68
2023/01/29 06:23:08;;;;;;;26.23;11.60;;;6.90;99.90;;;;;;5053100;28;20033;-69
2023/01/29 06:25:34;;;;;;;24.40;10.85;;;6.90;99.90;;;;;;5050718;28;20135;-69
2023/01/29 06:28:00;;;;;;;25.08;11.50;;;6.90;99.90;;;;;;5052738;28;20024;-70
2023/01/29 06:30:27;;;;;;;25.70;11.73;;;7.00;99.90;;;;;;5052938;28;20143;-71
2023/01/29 06:33:02;;;;;;;27.60;11.57;;;7.00;99.90;;;;;;5052821;28;20017;-69
2023/01/29 06:35:28;;;;;;;26.17;11.35;;;7.00;99.90;;;;;;5052944;28;20428;-70
2023/01/29 06:37:55;;;;;;;23.00;11.13;;;7.10;99.90;;;;;;5052650;28;20040;-69
2023/01/29 06:40:21;;;;;;;29.45;11.75;;;7.10;99.90;;;;;;5052333;28;20017;-69
2023/01/29 06:42:46;;;;;;;30.65;12.50;;;7.10;99.90;;;;;;5047426;28;20432;-71
2023/01/29 06:45:12;;;;;;;27.80;11.75;;;7.10;99.90;;;;;;5050585;28;20032;-69
2023/01/29 06:47:38;;;;;;;25.10;12.57;;;7.10;99.90;;;;;;5052621;28;20468;-70
2023/01/29 06:50:05;;;;;;;31.85;12.32;;;7.10;99.90;;;;;;5052774;28;20104;-69
2023/01/29 06:52:31;;;;;;;27.48;12.43;;;7.10;99.90;;;;;;5052623;28;20032;-69
2023/01/29 06:54:57;;;;;;;28.27;12.52;;;7.10;99.90;;;;;;5052459;28;20025;-69
2023/01/29 06:57:23;;;;;;;28.70;11.80;;;7.20;99.90;;;;;;5050275;28;20469;-69
2023/01/29 06:59:48;;;;;;;21.20;9.15;;;7.20;99.90;;;;;;5050368;28;20033;-69
2023/01/29 07:02:14;;;;;;;22.55;10.13;;;7.20;99.90;;;;;;5051396;28;20036;-69
2023/01/29 07:04:41;;;;;;;25.00;9.57;;;7.30;99.90;;;;;;5050718;28;20036;-70
2023/01/29 07:07:12;;;;;;;31.10;12.07;;;7.30;99.90;;;;;;5051359;28;20385;-70
2023/01/29 07:09:39;;;;;;;32.15;12.93;;;7.30;99.90;;;;;;5046379;28;20029;-69
2023/01/29 07:12:05;;;;;;;25.10;10.88;;;7.30;99.90;;;;;;5063384;28;20025;-70
2023/01/29 07:14:31;;;;;;;23.45;10.55;;;7.30;99.90;;;;;;5071839;28;20024;-70
2023/01/29 07:16:56;;;;;;;30.35;11.82;;;7.30;99.90;;;;;;5057081;28;20036;-70
2023/01/29 07:19:22;;;;;;;26.58;11.20;;;7.20;99.90;;;;;;5052416;28;20021;-70
2023/01/29 07:21:48;;;;;;;23.58;10.82;;;7.20;99.90;;;;;;5051946;28;20021;-71
2023/01/29 07:24:15;;;;;;;23.52;10.20;;;7.20;99.90;;;;;;5051549;28;20472;-71
2023/01/29 07:26:41;;;;;;;27.15;10.80;;;7.20;99.90;;;;;;5051737;28;20025;-70
2023/01/29 07:29:07;;;;;;;21.27;9.27;;;7.20;99.90;;;;;;5051786;28;20021;-71
2023/01/29 07:31:33;;;;;;;29.13;10.25;;;7.30;99.90;;;;;;5051277;28;20123;-71
2023/01/29 07:33:59;;;;;;;26.85;10.20;;;7.30;99.90;;;;;;5051556;28;20049;-71
2023/01/29 07:36:24;;;;;;;25.50;10.88;;;7.30;99.90;;;;;;5051581;28;20033;-70
2023/01/29 07:38:50;;;;;;;31.92;11.57;;;7.30;99.90;;;;;;5050814;28;20412;-69
2023/01/29 07:41:16;;;;;;;26.50;10.32;;;7.30;99.90;;;;;;5047213;28;20028;-70
2023/01/29 07:43:42;;;;;;;20.67;10.02;;;7.30;99.90;;;;;;5049245;28;20025;-70
2023/01/29 07:46:07;;;;;;;23.88;10.57;;;7.30;99.90;;;;;;5048258;28;20035;-69
2023/01/29 07:48:34;;;;;;;25.38;10.25;;;7.30;99.90;;;;;;5051490;28;20036;-70
2023/01/29 07:51:00;;;;;;;18.15;8.35;;;7.30;99.90;;;;;;5049900;28;20025;-69
2023/01/29 07:53:27;;;;;;;22.67;9.27;;;7.40;99.90;;;;;;5047332;28;20036;-70
2023/01/29 07:55:53;;;;;;;24.27;10.73;;;7.40;99.90;;;;;;5050131;28;20029;-69
2023/01/29 07:58:19;;;;;;;23.75;9.60;;;7.40;99.90;;;;;;5051849;28;20086;-70
2023/01/29 08:00:45;;;;;;;24.35;9.35;;;7.50;99.90;;;;;;5071056;28;20385;-69
2023/01/29 08:03:13;;;;;;;20.92;8.88;;;7.60;99.90;;;;;;5056270;28;20024;-70
2023/01/29 08:05:38;;;;;;;23.85;9.60;;;7.60;99.90;;;;;;5051029;28;20636;-71
2023/01/29 08:08:04;;;;;;;23.45;9.95;;;7.70;99.90;;;;;;5048627;28;20124;-70
2023/01/29 08:10:30;;;;;;;23.77;10.45;;;7.70;99.90;;;;;;5049662;28;20664;-70
2023/01/29 08:12:59;;;;;;;25.58;10.43;;;7.70;99.90;;;;;;5051023;28;20025;-70
2023/01/29 08:15:26;;;;;;;22.08;9.77;;;7.70;99.90;;;;;;5050045;28;20041;-69
2023/01/29 08:17:53;;;;;;;25.27;9.93;;;7.70;99.90;;;;;;5050995;28;20028;-69
2023/01/29 08:20:19;;;;;;;22.05;9.55;;;7.70;99.90;;;;;;5044677;28;20082;-70
2023/01/29 08:22:45;;;;;;;30.90;13.50;;;7.70;99.90;;;;;;5051112;28;20029;-69
2023/01/29 08:25:12;;;;;;;23.92;10.10;;;7.70;99.90;;;;;;5048935;28;20025;-70
2023/01/29 08:27:38;;;;;;;35.88;17.67;;;7.70;99.90;;;;;;5050301;28;20060;-70
2023/01/29 08:30:05;;;;;;;30.80;16.63;;;7.80;99.90;;;;;;5050405;28;20065;-70
2023/01/29 08:32:31;;;;;;;29.25;14.15;;;7.80;99.90;;;;;;5048862;28;20029;-70
2023/01/29 08:34:57;;;;;;;23.52;11.68;;;7.90;99.90;;;;;;5050019;28;20029;-69
2023/01/29 08:37:22;;;;;;;32.95;14.40;;;7.90;99.90;;;;;;5051028;28;20367;-70
2023/01/29 08:39:48;;;;;;;36.40;15.02;;;8.00;99.90;;;;;;5049946;28;20378;-71
2023/01/29 08:42:14;;;;;;;38.65;16.42;;;8.10;99.90;;;;;;5050342;28;20024;-71
2023/01/29 08:44:39;;;;;;;36.40;16.65;;;8.20;99.90;;;;;;5048678;28;20025;-70
2023/01/29 08:47:05;;;;;;;32.47;15.32;;;8.20;99.90;;;;;;5051450;28;20033;-70
2023/01/29 08:49:31;;;;;;;30.30;14.63;;;8.20;99.90;;;;;;5053463;28;20017;-70
2023/01/29 08:51:56;;;;;;;29.45;13.63;;;8.20;99.90;;;;;;5054168;28;20041;-70
2023/01/29 08:54:23;;;;;;;27.30;13.60;;;8.20;99.90;;;;;;5055836;28;20028;-70
2023/01/29 08:56:50;;;;;;;33.75;14.57;;;8.20;99.90;;;;;;5052856;28;20033;-70
2023/01/29 08:59:15;;;;;;;29.92;13.30;;;8.20;99.90;;;;;;5052522;28;20025;-70
2023/01/29 09:01:41;;;;;;;26.42;13.20;;;8.20;99.90;;;;;;5065784;28;20025;-71
2023/01/29 09:04:07;;;;;;;30.48;14.88;;;8.30;99.90;;;;;;5042664;28;20083;-71
2023/01/29 09:06:33;;;;;;;30.58;13.80;;;8.40;99.90;;;;;;5064993;28;20024;-70
2023/01/29 09:08:58;;;;;;;30.05;14.43;;;8.50;99.90;;;;;;5067248;28;20444;-70
2023/01/29 09:11:24;;;;;;;31.33;13.63;;;8.50;99.90;;;;;;5049571;28;20025;-71
2023/01/29 09:13:50;;;;;;;32.47;14.82;;;8.60;99.90;;;;;;5058658;28;20021;-70
2023/01/29 09:16:15;;;;;;;28.25;14.30;;;8.60;99.90;;;;;;5065906;28;20049;-71
2023/01/29 09:18:41;;;;;;;29.48;13.32;;;8.70;99.90;;;;;;5056094;28;20033;-70
2023/01/29 09:21:07;;;;;;;24.90;11.60;;;8.80;99.90;;;;;;5048657;28;20025;-71
2023/01/29 09:23:33;;;;;;;30.05;14.07;;;8.80;99.90;;;;;;5053475;28;20362;-70
2023/01/29 09:25:58;;;;;;;25.20;12.43;;;8.90;99.90;;;;;;5052871;28;20037;-72
2023/01/29 09:28:24;;;;;;;26.83;12.20;;;9.00;99.90;;;;;;5054274;28;20124;-69
2023/01/29 09:30:50;;;;;;;22.58;10.85;;;9.00;99.90;;;;;;5051832;28;20029;-71
2023/01/29 09:33:17;;;;;;;23.60;11.10;;;9.00;99.90;;;;;;5054264;28;20028;-71
2023/01/29 09:35:44;;;;;;;24.20;10.48;;;9.10;99.90;;;;;;5054039;28;20110;-70
2023/01/29 09:38:10;;;;;;;22.77;10.52;;;9.10;99.90;;;;;;5053752;28;20028;-72
2023/01/29 09:40:45;;;;;;;20.00;9.90;;;9.20;99.90;;;;;;5053616;28;20147;-70
2023/01/29 09:43:42;;;;;;;18.98;8.57;;;9.20;99.90;;;;;;5053013;28;20032;-70
2023/01/29 09:46:41;;;;;;;18.83;8.80;;;9.20;99.90;;;;;;5042103;28;20075;-70
2023/01/29 09:49:34;;;;;;;14.02;6.85;;;9.20;99.90;;;;;;5032768;28;20033;-72
2023/01/29 09:52:32;;;;;;;17.05;7.78;;;9.30;99.90;;;;;;5033368;28;20045;-71
2023/01/29 09:55:23;;;;;;;16.65;8.35;;;9.20;99.90;;;;;;5022082;28;20104;-70
2023/01/29 09:57:53;;;;;;;13.60;6.68;;;9.20;99.90;;;;;;5044745;28;20029;-70
2023/01/29 10:00:23;;;;;;;13.68;6.65;;;9.30;99.90;;;;;;5052979;28;20021;-71
2023/01/29 10:02:55;;;;;;;11.93;6.68;;;9.20;99.90;;;;;;5052935;28;20406;-71
2023/01/29 10:05:27;;;;;;;16.52;6.35;;;9.20;99.90;;;;;;5051810;28;20104;-70
2023/01/29 10:08:23;;;;;;;11.02;5.90;;;9.20;99.90;;;;;;5053113;28;20035;-70
2023/01/29 10:11:36;;;;;;;9.48;4.70;;;9.30;99.90;;;;;;5053470;28;20032;-71
2023/01/29 10:14:16;;;;;;;7.18;4.93;;;9.30;99.90;;;;;;5030294;28;20034;-71
2023/01/29 10:17:04;;;;;;;9.70;4.53;;;9.30;99.90;;;;;;5073083;28;20508;-70
2023/01/29 10:19:48;;;;;;;8.18;4.45;;;9.30;99.90;;;;;;5064978;28;20086;-71
2023/01/29 10:22:52;;;;;;;10.25;5.60;;;9.30;99.90;;;;;;5073133;28;20507;-70
2023/01/29 10:25:20;;;;;;;10.63;4.97;;;9.30;99.90;;;;;;5056799;28;20024;-71
2023/01/29 10:27:57;;;;;;;10.52;5.22;;;9.30;99.90;;;;;;5053093;28;20029;-70
2023/01/29 10:30:29;;;;;;;13.25;5.47;;;9.30;99.90;;;;;;5052901;28;20025;-70
2023/01/29 10:32:58;;;;;;;9.88;5.28;;;9.20;99.90;;;;;;5067989;28;20031;-71
2023/01/29 10:35:29;;;;;;;15.27;5.32;;;9.20;99.90;;;;;;5071398;28;20052;-71
2023/01/29 10:38:01;;;;;;;10.52;4.82;;;9.20;99.90;;;;;;5071263;28;20119;-71
2023/01/29 10:40:42;;;;;;;10.02;4.97;;;9.30;99.90;;;;;;5066510;28;20068;-70
2023/01/29 10:43:23;;;;;;;7.93;4.50;;;9.20;99.90;;;;;;5049451;28;20100;-70
2023/01/29 10:46:10;;;;;;;9.80;4.20;;;9.30;99.90;;;;;;5052550;28;20021;-71
2023/01/29 10:49:01;;;;;;;6.75;4.10;;;9.40;99.90;;;;;;5051443;28;20026;-71
2023/01/29 10:52:01;;;;;;;7.55;4.05;;;9.40;99.90;;;;;;5052545;28;20021;-70
2023/01/29 10:54:27;;;;;;;7.68;4.20;;;9.50;99.90;;;;;;5051452;28;20029;-70
2023/01/29 10:57:28;;;;;;;10.98;3.63;;;9.60;99.90;;;;;;5052611;28;20044;-70
2023/01/29 11:00:11;;;;;;;8.40;3.25;;;9.60;99.90;;;;;;5046693;28;20033;-70
2023/01/29 11:02:44;;;;;;;4.13;2.45;;;9.60;99.90;;;;;;5048672;28;20024;-71
2023/01/29 11:05:27;;;;;;;10.43;7.07;;;9.60;99.90;;;;;;5049111;28;20021;-72
2023/01/29 11:08:11;;;;;;;7.97;2.58;;;9.70;99.90;;;;;;5051337;28;20036;-72
2023/01/29 11:10:46;;;;;;;4.90;3.03;;;9.70;99.90;;;;;;5050619;28;20056;-71
2023/01/29 11:13:14;;;;;;;6.18;2.28;;;9.70;99.90;;;;;;5052152;28;20025;-71
2023/01/29 11:15:40;;;;;;;4.85;2.35;;;9.80;99.90;;;;;;5051857;28;20037;-71
2023/01/29 11:18:12;;;;;;;3.20;2.28;;;9.90;99.90;;;;;;5051078;28;20048;-72
2023/01/29 11:20:39;;;;;;;4.72;2.42;;;10.10;99.90;;;;;;5043218;28;20351;-72
2023/01/29 11:23:05;;;;;;;5.32;1.88;;;10.20;99.90;;;;;;5050856;28;20032;-72
2023/01/29 11:25:31;;;;;;;4.30;2.25;;;10.20;99.90;;;;;;5050863;28;20025;-71
2023/01/29 11:28:04;;;;;;;3.38;2.17;;;10.20;99.90;;;;;;5059305;28;20043;-71
2023/01/29 11:30:34;;;;;;;6.18;2.30;;;10.20;99.90;;;;;;5070044;28;20059;-70
2023/01/29 11:33:07;;;;;;;3.33;1.80;;;10.40;99.90;;;;;;5053203;28;20029;-70
2023/01/29 11:35:34;;;;;;;3.65;1.85;;;10.50;99.90;;;;;;5051381;28;20024;-70
2023/01/29 11:38:28;;;;;;;3.97;1.90;;;10.50;99.90;;;;;;5045749;28;20084;-71
2023/01/29 11:41:14;;;;;;;4.05;1.65;;;10.40;99.90;;;;;;5039676;28;20091;-70
2023/01/29 11:43:40;;;;;;;4.18;2.30;;;10.40;99.90;;;;;;5042567;28;20029;-70
2023/01/29 11:46:12;;;;;;;4.68;2.90;;;10.50;99.90;;;;;;5041766;28;20017;-71
2023/01/29 11:48:49;;;;;;;5.57;2.60;;;10.50;99.90;;;;;;5039678;28;20028;-71
2023/01/29 11:51:27;;;;;;;5.50;2.22;;;10.60;99.90;;;;;;5031688;28;20033;-71
2023/01/29 11:54:01;;;;;;;4.40;2.40;;;10.50;99.90;;;;;;5031501;28;20030;-70
2023/01/29 11:56:28;;;;;;;3.53;1.73;;;10.80;99.90;;;;;;5031488;28;20123;-70
2023/01/29 11:58:56;;;;;;;4.43;2.00;;;10.90;99.90;;;;;;5046578;28;20060;-71
2023/01/29 12:01:37;;;;;;;7.07;2.58;;;10.80;99.90;;;;;;5031486;28;20064;-71
2023/01/29 12:04:17;;;;;;;2.65;1.75;;;10.90;99.90;;;;;;5031821;28;20116;-71
2023/01/29 12:06:47;;;;;;;2.67;2.08;;;10.90;99.90;;;;;;5031714;28;20028;-71
2023/01/29 12:09:20;;;;;;;4.43;2.20;;;10.80;99.90;;;;;;5031718;28;20657;-72
2023/01/29 12:11:46;;;;;;;4.40;2.40;;;10.70;99.90;;;;;;5031979;28;20053;-71
2023/01/29 12:14:32;;;;;;;2.80;1.67;;;10.80;99.90;;;;;;5033430;28;20509;-71
2023/01/29 12:17:01;;;;;;;7.53;3.35;;;10.80;99.90;;;;;;5034943;28;20083;-70
2023/01/29 12:19:43;;;;;;;4.25;2.55;;;10.80;99.90;;;;;;5035488;28;20028;-71
2023/01/29 12:22:34;;;;;;;4.07;2.55;;;10.80;99.90;;;;;;5033675;28;20084;-70
2023/01/29 12:25:20;;;;;;;3.30;2.47;;;10.90;99.90;;;;;;5044016;28;20453;-70
2023/01/29 12:27:54;;;;;;;9.15;3.05;;;10.80;99.90;;;;;;5034580;28;20041;-70
2023/01/29 12:30:30;;;;;;;5.43;3.17;;;10.80;99.90;;;;;;5051034;28;20082;-71
2023/01/29 12:33:03;;;;;;;7.43;3.13;;;10.80;99.90;;;;;;5045785;28;20071;-70
2023/01/29 12:35:43;;;;;;;9.40;3.78;;;10.90;99.90;;;;;;5045514;28;20048;-70
2023/01/29 12:38:19;;;;;;;7.38;2.67;;;10.90;99.90;;;;;;5042316;28;20029;-68
2023/01/29 12:40:58;;;;;;;6.88;3.80;;;10.80;99.90;;;;;;5049756;28;20021;-69
2023/01/29 12:43:31;;;;;;;7.95;2.72;;;10.70;99.90;;;;;;5048767;28;20025;-69
2023/01/29 12:46:00;;;;;;;6.28;3.25;;;10.70;99.90;;;;;;5048219;28;20029;-69
2023/01/29 12:48:32;;;;;;;5.60;2.83;;;10.70;99.90;;;;;;5044853;28;20021;-69
2023/01/29 12:51:19;;;;;;;5.07;2.97;;;10.70;99.90;;;;;;5039896;28;20013;-70
2023/01/29 12:53:51;;;;;;;4.43;2.58;;;10.80;99.90;;;;;;5048760;28;20021;-70
2023/01/29 12:56:25;;;;;;;5.68;2.78;;;10.90;99.90;;;;;;5048740;28;20036;-69
2023/01/29 12:58:55;;;;;;;6.10;2.25;;;10.80;99.90;;;;;;5051337;28;20025;-70
2023/01/29 13:01:36;;;;;;;8.60;2.83;;;10.70;99.90;;;;;;5047730;28;20018;-70
2023/01/29 13:04:35;;;;;;;9.20;2.88;;;10.80;99.90;;;;;;5049005;28;20025;-71
2023/01/29 13:07:37;;;;;;;6.38;2.92;;;10.90;99.90;;;;;;5049412;28;20031;-71
2023/01/29 13:10:11;;;;;;;5.90;2.00;;;11.00;99.90;;;;;;5037155;28;20109;-70
2023/01/29 13:12:39;;;;;;;5.30;2.63;;;11.00;99.90;;;;;;5048534;28;20511;-70
2023/01/29 13:15:31;;;;;;;5.55;2.50;;;11.10;99.90;;;;;;5047741;28;20512;-70
2023/01/29 13:18:35;;;;;;;8.52;2.35;;;11.10;99.90;;;;;;5045948;28;20079;-70
2023/01/29 13:21:02;;;;;;;4.72;2.08;;;11.10;99.90;;;;;;5048008;28;20796;-70
2023/01/29 13:23:35;;;;;;;5.00;1.67;;;11.10;99.90;;;;;;5049217;28;20025;-69
2023/01/29 13:26:01;;;;;;;3.17;1.30;;;11.10;99.90;;;;;;5050046;28;20029;-70
2023/01/29 13:28:27;;;;;;;5.45;1.85;;;11.10;99.90;;;;;;5050827;28;20021;-70
2023/01/29 13:31:23;;;;;;;6.75;1.70;;;11.00;99.90;;;;;;5050015;28;20025;-70
2023/01/29 13:33:58;;;;;;;3.30;1.30;;;11.00;99.90;;;;;;5050028;28;20032;-71
2023/01/29 13:36:29;;;;;;;6.47;1.38;;;11.00;99.90;;;;;;5052129;28;20029;-69
2023/01/29 13:38:58;;;;;;;3.05;1.30;;;11.00;99.90;;;;;;5054188;28;20059;-70
2023/01/29 13:41:32;;;;;;;5.90;1.33;;;11.00;99.90;;;;;;5053441;28;20085;-69